Hlavní strana
METAR-TAF:

METAR-TAF

Letiště :

Hagåtña, Guam, Spojené státy americké

zeměpisná šířka: 13-29N, zeměpisná délka: 144-48E, výška: 91 m

Aktuální stav počasí

Zpráva byla vytvořena před 22 minutami, v 06:54 UTC
Severovýchodní vítr 15 kt s nárazy do 20 kt
Teplota 29°C
Vlhkost vzduchu 70%
Tlak 1010 hPa
Viditelnost: 16.1 km
Skoro jasno ve výšce 2400 ft
Polojasno ve výšce 3000 ft
Oblačno až skoro zataženo ve výšce 5000 ft

METAR: PGUM 200654Z 05015G20KT 10SM FEW024 SCT030 BKN050 29/23 A2982 RMK AO2 RAB22E31 SLP090 P0000 T02890233

Čas: 17:16 (07:16 UTC)

Předpověď počasí

Zpráva byla vytvořena před 1 hodinou a 42 minutami, v 05:34 UTC
Předpověď platná od 20 v 06 UTC do 21 v 12 UTC
Východoseverovýchodní vítr 14 kt
Viditelnost: 10 km
Polojasno ve výšce 2700 ft
Od 20 v 0800 UTC
Východoseverovýchodní vítr 9 kt
Viditelnost: 10 km
Polojasno ve výšce 2400 ft

TAF: PGUM 200534Z 2006/2112 07014KT P6SM SCT027 FM200800 06009KT P6SM SCT024

Stav a předpovědi počasí z více než 4 000 letišť (zprávy METAR a TAF).

Červené a žluté tečky na mapě představují dostupné meteorologické stanice.

Když kurzor umístíte na tečku, zobrazí se název stanice.

Pak kliknutím zobrazíte stav a předpověď počasí.

Chcete-li změnit mapu, kliknutím na zelené tlačítko se znaménkem +mapu přiblížíte, kliknutím na zelené tlačítko se znaménkem – mapu oddálíte a kliknutím na zelené šipky přejdete na sousední mapy.


METAR-TAF: